sensor_id;sensor_type;location;lat;lon;timestamp;pressure;altitude;pressure_sealevel;temperature;humidity
7660;BME280;3872;47.902;8.162;2023-04-22T00:00:59;91334.75;;;9.74;100.00
7660;BME280;3872;47.902;8.162;2023-04-22T00:03:26;91329.72;;;9.87;100.00
7660;BME280;3872;47.902;8.162;2023-04-22T00:05:55;91332.34;;;9.87;100.00
7660;BME280;3872;47.902;8.162;2023-04-22T00:08:21;91331.00;;;9.67;100.00
7660;BME280;3872;47.902;8.162;2023-04-22T00:10:48;91342.72;;;9.38;100.00
7660;BME280;3872;47.902;8.162;2023-04-22T00:13:14;91351.56;;;9.65;100.00
7660;BME280;3872;47.902;8.162;2023-04-22T00:15:41;91342.06;;;9.55;100.00
7660;BME280;3872;47.902;8.162;2023-04-22T00:18:07;91340.50;;;9.32;100.00
7660;BME280;3872;47.902;8.162;2023-04-22T00:20:39;91337.22;;;9.49;100.00
7660;BME280;3872;47.902;8.162;2023-04-22T00:23:09;91335.81;;;9.42;100.00
7660;BME280;3872;47.902;8.162;2023-04-22T00:25:36;91336.47;;;8.90;100.00
7660;BME280;3872;47.902;8.162;2023-04-22T00:28:02;91334.50;;;9.09;100.00
7660;BME280;3872;47.902;8.162;2023-04-22T00:30:29;91330.28;;;8.86;100.00
7660;BME280;3872;47.902;8.162;2023-04-22T00:32:56;91326.44;;;9.28;100.00
7660;BME280;3872;47.902;8.162;2023-04-22T00:35:23;91327.09;;;9.33;100.00
7660;BME280;3872;47.902;8.162;2023-04-22T00:37:49;91322.25;;;9.04;100.00
7660;BME280;3872;47.902;8.162;2023-04-22T00:40:17;91328.88;;;9.02;100.00
7660;BME280;3872;47.902;8.162;2023-04-22T00:42:45;91324.59;;;8.70;100.00
7660;BME280;3872;47.902;8.162;2023-04-22T00:45:14;91327.78;;;8.81;100.00
7660;BME280;3872;47.902;8.162;2023-04-22T00:47:43;91331.66;;;9.06;100.00
7660;BME280;3872;47.902;8.162;2023-04-22T00:50:10;91325.94;;;9.03;100.00
7660;BME280;3872;47.902;8.162;2023-04-22T00:52:37;91332.13;;;8.85;100.00
7660;BME280;3872;47.902;8.162;2023-04-22T00:55:04;91330.72;;;8.66;100.00
7660;BME280;3872;47.902;8.162;2023-04-22T00:57:33;91342.91;;;8.84;100.00
7660;BME280;3872;47.902;8.162;2023-04-22T01:00:00;91335.97;;;8.66;100.00
7660;BME280;3872;47.902;8.162;2023-04-22T01:02:27;91337.19;;;8.68;100.00
7660;BME280;3872;47.902;8.162;2023-04-22T01:04:56;91327.81;;;8.40;100.00
7660;BME280;3872;47.902;8.162;2023-04-22T01:07:24;91336.56;;;8.21;100.00
7660;BME280;3872;47.902;8.162;2023-04-22T01:09:50;91324.63;;;8.43;100.00
7660;BME280;3872;47.902;8.162;2023-04-22T01:12:17;91331.63;;;8.34;100.00
7660;BME280;3872;47.902;8.162;2023-04-22T01:14:46;91323.91;;;8.64;100.00
7660;BME280;3872;47.902;8.162;2023-04-22T01:17:14;91315.84;;;8.61;100.00
7660;BME280;3872;47.902;8.162;2023-04-22T01:19:43;91324.03;;;8.32;100.00
7660;BME280;3872;47.902;8.162;2023-04-22T01:22:11;91331.72;;;8.15;100.00
7660;BME280;3872;47.902;8.162;2023-04-22T01:24:40;91323.56;;;8.16;100.00
7660;BME280;3872;47.902;8.162;2023-04-22T01:27:07;91319.84;;;8.17;100.00
7660;BME280;3872;47.902;8.162;2023-04-22T01:29:35;91318.22;;;8.08;100.00
7660;BME280;3872;47.902;8.162;2023-04-22T01:32:02;91313.84;;;8.03;100.00
7660;BME280;3872;47.902;8.162;2023-04-22T01:34:30;91326.06;;;7.67;100.00
7660;BME280;3872;47.902;8.162;2023-04-22T01:36:57;91327.91;;;7.80;100.00
7660;BME280;3872;47.902;8.162;2023-04-22T01:39:23;91323.13;;;7.82;100.00
7660;BME280;3872;47.902;8.162;2023-04-22T01:41:52;91325.56;;;7.78;100.00
7660;BME280;3872;47.902;8.162;2023-04-22T01:44:19;91329.78;;;7.47;100.00
7660;BME280;3872;47.902;8.162;2023-04-22T01:46:46;91331.47;;;7.70;100.00
7660;BME280;3872;47.902;8.162;2023-04-22T01:49:13;91337.44;;;7.43;100.00
7660;BME280;3872;47.902;8.162;2023-04-22T01:51:39;91342.03;;;7.33;100.00
7660;BME280;3872;47.902;8.162;2023-04-22T01:54:06;91339.72;;;7.77;100.00
7660;BME280;3872;47.902;8.162;2023-04-22T01:56:34;91342.47;;;8.00;100.00
7660;BME280;3872;47.902;8.162;2023-04-22T01:59:03;91346.16;;;8.12;100.00
7660;BME280;3872;47.902;8.162;2023-04-22T02:01:34;91355.19;;;8.06;100.00
7660;BME280;3872;47.902;8.162;2023-04-22T02:04:01;91352.84;;;7.91;100.00
7660;BME280;3872;47.902;8.162;2023-04-22T02:06:28;91362.44;;;7.36;100.00
7660;BME280;3872;47.902;8.162;2023-04-22T02:08:55;91355.94;;;7.47;100.00
7660;BME280;3872;47.902;8.162;2023-04-22T02:11:22;91350.63;;;7.38;100.00
7660;BME280;3872;47.902;8.162;2023-04-22T02:13:48;91346.81;;;7.12;100.00
7660;BME280;3872;47.902;8.162;2023-04-22T02:16:16;91345.44;;;7.33;100.00
7660;BME280;3872;47.902;8.162;2023-04-22T02:18:43;91347.56;;;7.64;100.00
7660;BME280;3872;47.902;8.162;2023-04-22T02:21:10;91348.03;;;7.52;100.00
7660;BME280;3872;47.902;8.162;2023-04-22T02:23:39;91350.25;;;6.94;100.00
7660;BME280;3872;47.902;8.162;2023-04-22T02:26:06;91352.22;;;7.02;100.00
7660;BME280;3872;47.902;8.162;2023-04-22T02:28:34;91352.75;;;7.18;100.00
7660;BME280;3872;47.902;8.162;2023-04-22T02:31:00;91359.66;;;6.95;100.00
7660;BME280;3872;47.902;8.162;2023-04-22T02:33:28;91357.72;;;7.00;100.00
7660;BME280;3872;47.902;8.162;2023-04-22T02:35:55;91365.13;;;7.31;100.00
7660;BME280;3872;47.902;8.162;2023-04-22T02:38:21;91356.66;;;7.53;100.00
7660;BME280;3872;47.902;8.162;2023-04-22T02:40:48;91358.75;;;7.18;100.00
7660;BME280;3872;47.902;8.162;2023-04-22T02:43:14;91361.34;;;6.86;100.00
7660;BME280;3872;47.902;8.162;2023-04-22T02:45:41;91362.16;;;7.19;100.00
7660;BME280;3872;47.902;8.162;2023-04-22T02:48:08;91360.78;;;7.40;100.00
7660;BME280;3872;47.902;8.162;2023-04-22T02:50:36;91361.59;;;7.22;100.00
7660;BME280;3872;47.902;8.162;2023-04-22T02:53:03;91363.53;;;6.79;100.00
7660;BME280;3872;47.902;8.162;2023-04-22T02:55:29;91357.38;;;6.88;100.00
7660;BME280;3872;47.902;8.162;2023-04-22T02:57:56;91358.16;;;6.89;100.00
7660;BME280;3872;47.902;8.162;2023-04-22T03:00:22;91368.09;;;6.49;100.00
7660;BME280;3872;47.902;8.162;2023-04-22T03:02:49;91363.72;;;6.63;100.00
7660;BME280;3872;47.902;8.162;2023-04-22T03:05:18;91370.09;;;6.57;100.00
7660;BME280;3872;47.902;8.162;2023-04-22T03:07:46;91367.66;;;6.42;100.00
7660;BME280;3872;47.902;8.162;2023-04-22T03:10:15;91374.25;;;5.92;100.00
7660;BME280;3872;47.902;8.162;2023-04-22T03:12:41;91362.00;;;6.35;100.00
7660;BME280;3872;47.902;8.162;2023-04-22T03:15:09;91366.25;;;6.50;100.00
7660;BME280;3872;47.902;8.162;2023-04-22T03:17:36;91369.09;;;6.53;100.00
7660;BME280;3872;47.902;8.162;2023-04-22T03:20:08;91366.06;;;6.65;100.00
7660;BME280;3872;47.902;8.162;2023-04-22T03:22:35;91363.47;;;6.65;100.00
7660;BME280;3872;47.902;8.162;2023-04-22T03:25:06;91351.22;;;6.79;100.00
7660;BME280;3872;47.902;8.162;2023-04-22T03:27:32;91361.19;;;6.77;100.00
7660;BME280;3872;47.902;8.162;2023-04-22T03:29:59;91365.63;;;6.77;100.00
7660;BME280;3872;47.902;8.162;2023-04-22T03:32:26;91358.38;;;6.74;100.00
7660;BME280;3872;47.902;8.162;2023-04-22T03:35:12;91358.41;;;6.07;100.00
7660;BME280;3872;47.902;8.162;2023-04-22T03:37:39;91358.22;;;6.46;100.00
7660;BME280;3872;47.902;8.162;2023-04-22T03:40:09;91360.50;;;6.72;100.00
7660;BME280;3872;47.902;8.162;2023-04-22T03:42:36;91356.25;;;6.33;100.00
7660;BME280;3872;47.902;8.162;2023-04-22T03:45:04;91361.22;;;6.35;100.00
7660;BME280;3872;47.902;8.162;2023-04-22T03:47:35;91366.44;;;5.87;100.00
7660;BME280;3872;47.902;8.162;2023-04-22T03:50:10;91373.19;;;6.17;100.00
7660;BME280;3872;47.902;8.162;2023-04-22T03:52:37;91367.47;;;6.57;100.00
7660;BME280;3872;47.902;8.162;2023-04-22T03:55:05;91372.53;;;6.49;100.00
7660;BME280;3872;47.902;8.162;2023-04-22T03:57:35;91376.72;;;6.26;100.00
7660;BME280;3872;47.902;8.162;2023-04-22T04:00:03;91371.47;;;6.07;100.00
7660;BME280;3872;47.902;8.162;2023-04-22T04:02:40;91369.41;;;6.04;100.00
7660;BME280;3872;47.902;8.162;2023-04-22T04:05:10;91369.09;;;6.11;100.00
7660;BME280;3872;47.902;8.162;2023-04-22T04:07:38;91373.09;;;6.03;100.00
7660;BME280;3872;47.902;8.162;2023-04-22T04:10:06;91364.81;;;5.67;100.00
7660;BME280;3872;47.902;8.162;2023-04-22T04:12:34;91366.97;;;6.13;100.00
7660;BME280;3872;47.902;8.162;2023-04-22T04:15:01;91364.06;;;5.90;100.00
7660;BME280;3872;47.902;8.162;2023-04-22T04:17:28;91362.16;;;6.44;100.00
7660;BME280;3872;47.902;8.162;2023-04-22T04:19:56;91360.19;;;6.12;100.00
7660;BME280;3872;47.902;8.162;2023-04-22T04:22:22;91361.94;;;6.40;100.00
7660;BME280;3872;47.902;8.162;2023-04-22T04:24:55;91368.00;;;6.12;100.00
7660;BME280;3872;47.902;8.162;2023-04-22T04:27:26;91365.94;;;5.27;100.00
7660;BME280;3872;47.902;8.162;2023-04-22T04:29:55;91356.91;;;6.25;100.00
7660;BME280;3872;47.902;8.162;2023-04-22T04:32:34;91367.81;;;6.51;100.00
7660;BME280;3872;47.902;8.162;2023-04-22T04:35:05;91357.63;;;6.49;100.00
7660;BME280;3872;47.902;8.162;2023-04-22T04:37:32;91364.28;;;6.42;100.00
7660;BME280;3872;47.902;8.162;2023-04-22T04:40:05;91355.38;;;6.19;100.00
7660;BME280;3872;47.902;8.162;2023-04-22T04:42:46;91358.41;;;6.50;100.00
7660;BME280;3872;47.902;8.162;2023-04-22T04:45:21;91357.09;;;6.52;100.00
7660;BME280;3872;47.902;8.162;2023-04-22T04:47:48;91354.22;;;6.30;100.00
7660;BME280;3872;47.902;8.162;2023-04-22T04:50:22;91356.34;;;6.04;100.00
7660;BME280;3872;47.902;8.162;2023-04-22T04:52:54;91362.34;;;6.28;100.00
7660;BME280;3872;47.902;8.162;2023-04-22T04:55:26;91357.47;;;6.22;100.00
7660;BME280;3872;47.902;8.162;2023-04-22T04:57:54;91358.69;;;6.29;100.00
7660;BME280;3872;47.902;8.162;2023-04-22T05:00:22;91360.88;;;6.41;100.00
7660;BME280;3872;47.902;8.162;2023-04-22T05:02:49;91360.56;;;6.24;100.00
7660;BME280;3872;47.902;8.162;2023-04-22T05:05:15;91361.31;;;6.48;100.00
7660;BME280;3872;47.902;8.162;2023-04-22T05:07:42;91361.38;;;6.43;100.00
7660;BME280;3872;47.902;8.162;2023-04-22T05:10:11;91373.41;;;6.44;100.00
7660;BME280;3872;47.902;8.162;2023-04-22T05:12:38;91362.53;;;6.56;100.00
7660;BME280;3872;47.902;8.162;2023-04-22T05:15:08;91370.97;;;6.48;100.00
7660;BME280;3872;47.902;8.162;2023-04-22T05:17:37;91366.63;;;5.96;100.00
7660;BME280;3872;47.902;8.162;2023-04-22T05:20:05;91372.00;;;6.52;100.00
7660;BME280;3872;47.902;8.162;2023-04-22T05:22:33;91372.06;;;6.65;100.00
7660;BME280;3872;47.902;8.162;2023-04-22T05:25:00;91372.63;;;6.44;100.00
7660;BME280;3872;47.902;8.162;2023-04-22T05:27:26;91376.03;;;5.97;100.00
7660;BME280;3872;47.902;8.162;2023-04-22T05:29:53;91385.47;;;6.16;100.00
7660;BME280;3872;47.902;8.162;2023-04-22T05:32:24;91381.34;;;6.34;100.00
7660;BME280;3872;47.902;8.162;2023-04-22T05:34:52;91380.66;;;6.47;100.00
7660;BME280;3872;47.902;8.162;2023-04-22T05:37:19;91373.66;;;6.43;100.00
7660;BME280;3872;47.902;8.162;2023-04-22T05:39:46;91373.41;;;6.44;100.00
7660;BME280;3872;47.902;8.162;2023-04-22T05:42:13;91374.38;;;6.48;100.00
7660;BME280;3872;47.902;8.162;2023-04-22T05:44:40;91378.94;;;5.90;100.00
7660;BME280;3872;47.902;8.162;2023-04-22T05:47:07;91374.00;;;6.36;100.00
7660;BME280;3872;47.902;8.162;2023-04-22T05:49:34;91377.03;;;6.24;100.00
7660;BME280;3872;47.902;8.162;2023-04-22T05:52:25;91371.66;;;6.77;100.00
7660;BME280;3872;47.902;8.162;2023-04-22T05:55:13;91381.88;;;7.11;100.00
7660;BME280;3872;47.902;8.162;2023-04-22T05:57:39;91369.47;;;7.03;100.00
7660;BME280;3872;47.902;8.162;2023-04-22T06:00:23;91375.31;;;7.14;100.00
7660;BME280;3872;47.902;8.162;2023-04-22T06:03:04;91374.59;;;7.45;100.00
7660;BME280;3872;47.902;8.162;2023-04-22T06:05:30;91378.72;;;6.77;100.00
7660;BME280;3872;47.902;8.162;2023-04-22T06:07:58;91378.34;;;7.85;100.00
7660;BME280;3872;47.902;8.162;2023-04-22T06:10:25;91382.34;;;8.10;100.00
7660;BME280;3872;47.902;8.162;2023-04-22T06:12:52;91379.69;;;8.56;100.00
7660;BME280;3872;47.902;8.162;2023-04-22T06:15:18;91380.63;;;8.60;100.00
7660;BME280;3872;47.902;8.162;2023-04-22T06:17:47;91381.16;;;7.89;100.00
7660;BME280;3872;47.902;8.162;2023-04-22T06:20:13;91381.53;;;8.42;100.00
7660;BME280;3872;47.902;8.162;2023-04-22T06:22:40;91373.50;;;9.24;100.00
7660;BME280;3872;47.902;8.162;2023-04-22T06:25:09;91372.34;;;9.30;100.00
7660;BME280;3872;47.902;8.162;2023-04-22T06:27:36;91373.50;;;9.69;100.00
7660;BME280;3872;47.902;8.162;2023-04-22T06:30:04;91377.22;;;9.68;100.00
7660;BME280;3872;47.902;8.162;2023-04-22T06:32:31;91380.22;;;10.06;100.00
7660;BME280;3872;47.902;8.162;2023-04-22T06:34:57;91377.13;;;10.35;100.00
7660;BME280;3872;47.902;8.162;2023-04-22T06:37:24;91378.47;;;10.63;100.00
7660;BME280;3872;47.902;8.162;2023-04-22T06:39:51;91374.22;;;10.93;100.00
7660;BME280;3872;47.902;8.162;2023-04-22T06:42:30;91373.44;;;11.87;100.00
7660;BME280;3872;47.902;8.162;2023-04-22T06:45:15;91371.50;;;12.22;100.00
7660;BME280;3872;47.902;8.162;2023-04-22T06:47:52;91379.47;;;11.96;100.00
7660;BME280;3872;47.902;8.162;2023-04-22T06:50:22;91378.13;;;11.56;100.00
7660;BME280;3872;47.902;8.162;2023-04-22T06:52:53;91380.44;;;11.83;100.00
7660;BME280;3872;47.902;8.162;2023-04-22T06:55:20;91375.78;;;11.54;100.00
7660;BME280;3872;47.902;8.162;2023-04-22T06:57:49;91382.91;;;11.88;100.00
7660;BME280;3872;47.902;8.162;2023-04-22T07:00:16;91383.78;;;12.09;100.00
7660;BME280;3872;47.902;8.162;2023-04-22T07:02:43;91383.41;;;12.75;100.00
7660;BME280;3872;47.902;8.162;2023-04-22T07:05:09;91391.19;;;12.71;100.00
7660;BME280;3872;47.902;8.162;2023-04-22T07:07:37;91380.88;;;13.37;95.34
7660;BME280;3872;47.902;8.162;2023-04-22T07:10:05;91385.06;;;13.59;88.47
7660;BME280;3872;47.902;8.162;2023-04-22T07:12:38;91378.63;;;12.98;94.71
7660;BME280;3872;47.902;8.162;2023-04-22T07:15:06;91372.88;;;13.66;90.43
7660;BME280;3872;47.902;8.162;2023-04-22T07:17:33;91379.41;;;13.48;92.10
7660;BME280;3872;47.902;8.162;2023-04-22T07:20:00;91377.72;;;13.64;86.95
7660;BME280;3872;47.902;8.162;2023-04-22T07:22:26;91370.50;;;13.53;93.90
7660;BME280;3872;47.902;8.162;2023-04-22T07:24:53;91367.03;;;13.61;94.04
7660;BME280;3872;47.902;8.162;2023-04-22T07:27:19;91367.13;;;13.85;94.24
7660;BME280;3872;47.902;8.162;2023-04-22T07:29:46;91373.16;;;14.06;85.46
7660;BME280;3872;47.902;8.162;2023-04-22T07:32:14;91373.41;;;14.26;84.52
7660;BME280;3872;47.902;8.162;2023-04-22T07:34:43;91371.63;;;14.63;83.33
7660;BME280;3872;47.902;8.162;2023-04-22T07:37:09;91356.19;;;14.89;83.00
7660;BME280;3872;47.902;8.162;2023-04-22T07:39:36;91361.38;;;14.85;78.90
7660;BME280;3872;47.902;8.162;2023-04-22T07:42:02;91358.91;;;15.29;77.35
7660;BME280;3872;47.902;8.162;2023-04-22T07:44:29;91354.88;;;15.59;74.57
7660;BME280;3872;47.902;8.162;2023-04-22T07:46:56;91353.88;;;15.92;75.29
7660;BME280;3872;47.902;8.162;2023-04-22T07:49:23;91361.28;;;16.14;72.67
7660;BME280;3872;47.902;8.162;2023-04-22T07:51:50;91365.44;;;16.27;72.06
7660;BME280;3872;47.902;8.162;2023-04-22T07:54:17;91363.94;;;16.58;69.53
7660;BME280;3872;47.902;8.162;2023-04-22T07:56:43;91362.28;;;16.37;67.60
7660;BME280;3872;47.902;8.162;2023-04-22T07:59:10;91364.63;;;16.55;71.05
7660;BME280;3872;47.902;8.162;2023-04-22T08:01:37;91366.84;;;17.15;68.44
7660;BME280;3872;47.902;8.162;2023-04-22T08:04:03;91358.25;;;17.57;64.43
7660;BME280;3872;47.902;8.162;2023-04-22T08:06:31;91360.75;;;17.85;56.87
7660;BME280;3872;47.902;8.162;2023-04-22T08:08:58;91353.81;;;17.61;58.57
7660;BME280;3872;47.902;8.162;2023-04-22T08:11:24;91361.59;;;18.08;56.61
7660;BME280;3872;47.902;8.162;2023-04-22T08:13:51;91364.56;;;18.03;55.88
7660;BME280;3872;47.902;8.162;2023-04-22T08:16:17;91358.94;;;18.08;57.01
7660;BME280;3872;47.902;8.162;2023-04-22T08:18:44;91363.72;;;18.18;57.46
7660;BME280;3872;47.902;8.162;2023-04-22T08:21:11;91359.22;;;18.03;57.00
7660;BME280;3872;47.902;8.162;2023-04-22T08:23:40;91361.00;;;18.80;55.19
7660;BME280;3872;47.902;8.162;2023-04-22T08:26:06;91355.78;;;18.87;52.12
7660;BME280;3872;47.902;8.162;2023-04-22T08:28:34;91354.75;;;19.17;51.71
7660;BME280;3872;47.902;8.162;2023-04-22T08:31:00;91349.72;;;19.65;53.08
7660;BME280;3872;47.902;8.162;2023-04-22T08:33:27;91351.56;;;20.21;50.79
7660;BME280;3872;47.902;8.162;2023-04-22T08:35:54;91350.50;;;19.96;51.82
7660;BME280;3872;47.902;8.162;2023-04-22T08:38:20;91352.03;;;20.30;49.28
7660;BME280;3872;47.902;8.162;2023-04-22T08:40:48;91334.78;;;21.01;47.54
7660;BME280;3872;47.902;8.162;2023-04-22T08:43:15;91330.47;;;20.86;50.05
7660;BME280;3872;47.902;8.162;2023-04-22T08:45:43;91333.81;;;19.46;50.23
7660;BME280;3872;47.902;8.162;2023-04-22T08:48:11;91332.53;;;19.63;42.29
7660;BME280;3872;47.902;8.162;2023-04-22T08:50:37;91321.81;;;19.89;43.50
7660;BME280;3872;47.902;8.162;2023-04-22T08:53:04;91333.78;;;20.73;43.99
7660;BME280;3872;47.902;8.162;2023-04-22T08:55:32;91331.22;;;20.87;42.75
7660;BME280;3872;47.902;8.162;2023-04-22T08:58:01;91319.53;;;21.05;38.98
7660;BME280;3872;47.902;8.162;2023-04-22T09:00:30;91321.66;;;18.96;40.93
7660;BME280;3872;47.902;8.162;2023-04-22T09:03:00;91319.00;;;20.12;38.91
7660;BME280;3872;47.902;8.162;2023-04-22T09:05:28;91315.63;;;20.15;38.14
7660;BME280;3872;47.902;8.162;2023-04-22T09:07:57;91311.13;;;19.89;37.21
7660;BME280;3872;47.902;8.162;2023-04-22T09:10:24;91312.22;;;21.54;36.04
7660;BME280;3872;47.902;8.162;2023-04-22T09:12:52;91302.69;;;21.05;35.92
7660;BME280;3872;47.902;8.162;2023-04-22T09:15:21;91310.19;;;20.85;35.40
7660;BME280;3872;47.902;8.162;2023-04-22T09:17:50;91305.91;;;21.25;35.34
7660;BME280;3872;47.902;8.162;2023-04-22T09:20:17;91306.84;;;21.50;34.91
7660;BME280;3872;47.902;8.162;2023-04-22T09:22:45;91304.63;;;21.59;35.04
7660;BME280;3872;47.902;8.162;2023-04-22T09:25:16;91300.03;;;21.63;34.72
7660;BME280;3872;47.902;8.162;2023-04-22T09:27:47;91301.41;;;22.05;35.15
7660;BME280;3872;47.902;8.162;2023-04-22T09:30:14;91302.88;;;20.79;36.34
7660;BME280;3872;47.902;8.162;2023-04-22T09:32:50;91302.31;;;21.58;35.91
7660;BME280;3872;47.902;8.162;2023-04-22T09:35:23;91306.09;;;19.84;36.74
7660;BME280;3872;47.902;8.162;2023-04-22T09:37:51;91302.91;;;20.82;35.85
7660;BME280;3872;47.902;8.162;2023-04-22T09:40:18;91309.75;;;21.24;35.21
7660;BME280;3872;47.902;8.162;2023-04-22T09:42:48;91300.16;;;20.71;36.20
7660;BME280;3872;47.902;8.162;2023-04-22T09:45:24;91297.31;;;20.98;35.42
7660;BME280;3872;47.902;8.162;2023-04-22T09:47:53;91304.19;;;19.84;36.27
7660;BME280;3872;47.902;8.162;2023-04-22T09:50:20;91299.44;;;21.26;34.73
7660;BME280;3872;47.902;8.162;2023-04-22T09:52:53;91297.44;;;21.77;34.24
7660;BME280;3872;47.902;8.162;2023-04-22T09:55:20;91289.66;;;21.51;33.63
7660;BME280;3872;47.902;8.162;2023-04-22T09:57:50;91299.25;;;20.57;35.81
7660;BME280;3872;47.902;8.162;2023-04-22T10:00:16;91297.00;;;20.25;35.14
7660;BME280;3872;47.902;8.162;2023-04-22T10:02:43;91302.16;;;20.41;34.62
7660;BME280;3872;47.902;8.162;2023-04-22T10:05:11;91289.34;;;21.63;33.21
7660;BME280;3872;47.902;8.162;2023-04-22T10:07:38;91291.53;;;20.92;34.71
7660;BME280;3872;47.902;8.162;2023-04-22T10:10:06;91287.03;;;21.58;33.25
7660;BME280;3872;47.902;8.162;2023-04-22T10:12:33;91295.16;;;21.18;34.02
7660;BME280;3872;47.902;8.162;2023-04-22T10:15:00;91301.47;;;21.46;34.70
7660;BME280;3872;47.902;8.162;2023-04-22T10:17:29;91292.91;;;21.20;34.40
7660;BME280;3872;47.902;8.162;2023-04-22T10:19:57;91291.53;;;20.92;34.13
7660;BME280;3872;47.902;8.162;2023-04-22T10:22:29;91291.84;;;20.84;33.99
7660;BME280;3872;47.902;8.162;2023-04-22T10:24:56;91283.59;;;21.68;33.57
7660;BME280;3872;47.902;8.162;2023-04-22T10:27:23;91282.53;;;21.80;33.90
7660;BME280;3872;47.902;8.162;2023-04-22T10:29:50;91286.22;;;22.51;32.68
7660;BME280;3872;47.902;8.162;2023-04-22T10:32:23;91289.59;;;21.40;32.99
7660;BME280;3872;47.902;8.162;2023-04-22T10:35:06;91289.19;;;21.35;34.03
7660;BME280;3872;47.902;8.162;2023-04-22T10:37:35;91294.22;;;22.30;33.31
7660;BME280;3872;47.902;8.162;2023-04-22T10:40:08;91288.94;;;22.97;32.56
7660;BME280;3872;47.902;8.162;2023-04-22T10:42:38;91289.31;;;23.49;33.75
7660;BME280;3872;47.902;8.162;2023-04-22T10:45:06;91283.94;;;23.28;31.20
7660;BME280;3872;47.902;8.162;2023-04-22T10:47:34;91287.69;;;22.31;32.35
7660;BME280;3872;47.902;8.162;2023-04-22T10:50:18;91292.00;;;21.01;35.25
7660;BME280;3872;47.902;8.162;2023-04-22T10:52:49;91283.47;;;22.26;34.00
7660;BME280;3872;47.902;8.162;2023-04-22T10:55:17;91283.81;;;22.07;33.03
7660;BME280;3872;47.902;8.162;2023-04-22T10:57:45;91284.72;;;21.60;33.96
7660;BME280;3872;47.902;8.162;2023-04-22T11:00:20;91289.28;;;21.56;34.63
7660;BME280;3872;47.902;8.162;2023-04-22T11:02:51;91300.06;;;22.78;31.76
7660;BME280;3872;47.902;8.162;2023-04-22T11:05:19;91293.13;;;23.16;29.97
7660;BME280;3872;47.902;8.162;2023-04-22T11:07:48;91292.00;;;23.03;30.17
7660;BME280;3872;47.902;8.162;2023-04-22T11:10:34;91293.91;;;22.95;30.96
7660;BME280;3872;47.902;8.162;2023-04-22T11:13:05;91302.47;;;21.17;32.19
7660;BME280;3872;47.902;8.162;2023-04-22T11:15:34;91288.25;;;21.78;32.02
7660;BME280;3872;47.902;8.162;2023-04-22T11:18:01;91308.28;;;22.06;32.00
7660;BME280;3872;47.902;8.162;2023-04-22T11:20:28;91303.13;;;22.73;31.76
7660;BME280;3872;47.902;8.162;2023-04-22T11:22:56;91321.19;;;21.17;33.36
7660;BME280;3872;47.902;8.162;2023-04-22T11:25:24;91316.97;;;21.20;32.10
7660;BME280;3872;47.902;8.162;2023-04-22T11:27:52;91321.78;;;21.03;33.13
7660;BME280;3872;47.902;8.162;2023-04-22T11:30:21;91313.78;;;21.03;32.65
7660;BME280;3872;47.902;8.162;2023-04-22T11:32:50;91329.22;;;20.36;34.12
7660;BME280;3872;47.902;8.162;2023-04-22T11:35:18;91336.38;;;20.28;35.55
7660;BME280;3872;47.902;8.162;2023-04-22T11:37:46;91340.44;;;19.29;36.72
7660;BME280;3872;47.902;8.162;2023-04-22T11:40:15;91342.41;;;19.59;39.29
7660;BME280;3872;47.902;8.162;2023-04-22T11:42:42;91355.59;;;18.11;45.97
7660;BME280;3872;47.902;8.162;2023-04-22T11:45:09;91340.91;;;19.08;47.11
7660;BME280;3872;47.902;8.162;2023-04-22T11:47:36;91333.28;;;19.60;42.99
7660;BME280;3872;47.902;8.162;2023-04-22T11:50:04;91335.03;;;19.78;43.58
7660;BME280;3872;47.902;8.162;2023-04-22T11:52:42;91333.53;;;20.14;41.28
7660;BME280;3872;47.902;8.162;2023-04-22T11:55:10;91331.19;;;21.27;40.65
7660;BME280;3872;47.902;8.162;2023-04-22T11:57:38;91323.19;;;20.09;43.29
7660;BME280;3872;47.902;8.162;2023-04-22T12:00:06;91322.81;;;20.85;42.04
7660;BME280;3872;47.902;8.162;2023-04-22T12:02:33;91317.56;;;20.99;43.29
7660;BME280;3872;47.902;8.162;2023-04-22T12:05:01;91314.47;;;20.97;42.29
7660;BME280;3872;47.902;8.162;2023-04-22T12:07:28;91318.47;;;18.64;42.88
7660;BME280;3872;47.902;8.162;2023-04-22T12:09:57;91320.81;;;20.04;39.03
7660;BME280;3872;47.902;8.162;2023-04-22T12:12:26;91322.59;;;19.60;40.53
7660;BME280;3872;47.902;8.162;2023-04-22T12:14:54;91325.78;;;18.67;40.83
7660;BME280;3872;47.902;8.162;2023-04-22T12:17:22;91326.69;;;18.78;40.28
7660;BME280;3872;47.902;8.162;2023-04-22T12:19:52;91322.25;;;18.86;40.55
7660;BME280;3872;47.902;8.162;2023-04-22T12:22:24;91332.56;;;18.87;40.65
7660;BME280;3872;47.902;8.162;2023-04-22T12:24:51;91329.47;;;19.08;40.79
7660;BME280;3872;47.902;8.162;2023-04-22T12:27:17;91341.22;;;18.58;41.94
7660;BME280;3872;47.902;8.162;2023-04-22T12:29:50;91358.09;;;18.65;43.83
7660;BME280;3872;47.902;8.162;2023-04-22T12:32:19;91366.63;;;18.13;45.49
7660;BME280;3872;47.902;8.162;2023-04-22T12:34:46;91360.66;;;17.62;49.65
7660;BME280;3872;47.902;8.162;2023-04-22T12:37:13;91367.91;;;17.46;54.54
7660;BME280;3872;47.902;8.162;2023-04-22T12:39:39;91371.56;;;17.06;55.70
7660;BME280;3872;47.902;8.162;2023-04-22T12:42:07;91347.47;;;18.46;54.40
7660;BME280;3872;47.902;8.162;2023-04-22T12:44:33;91348.22;;;17.66;53.97
7660;BME280;3872;47.902;8.162;2023-04-22T12:47:00;91344.91;;;18.72;50.91
7660;BME280;3872;47.902;8.162;2023-04-22T12:49:29;91336.28;;;19.58;47.29
7660;BME280;3872;47.902;8.162;2023-04-22T12:51:55;91337.19;;;19.69;46.31
7660;BME280;3872;47.902;8.162;2023-04-22T12:54:23;91336.97;;;19.81;47.73
7660;BME280;3872;47.902;8.162;2023-04-22T12:56:49;91326.31;;;19.55;46.55
7660;BME280;3872;47.902;8.162;2023-04-22T12:59:16;91327.97;;;19.97;44.45
7660;BME280;3872;47.902;8.162;2023-04-22T13:01:42;91328.88;;;19.22;46.12
7660;BME280;3872;47.902;8.162;2023-04-22T13:04:09;91336.38;;;19.12;43.41
7660;BME280;3872;47.902;8.162;2023-04-22T13:06:37;91335.44;;;18.75;45.05
7660;BME280;3872;47.902;8.162;2023-04-22T13:09:06;91341.34;;;19.14;43.23
7660;BME280;3872;47.902;8.162;2023-04-22T13:11:32;91333.41;;;19.44;43.24
7660;BME280;3872;47.902;8.162;2023-04-22T13:13:59;91326.28;;;19.51;42.13
7660;BME280;3872;47.902;8.162;2023-04-22T13:16:25;91328.72;;;18.62;43.85
7660;BME280;3872;47.902;8.162;2023-04-22T13:18:52;91324.13;;;19.61;41.67
7660;BME280;3872;47.902;8.162;2023-04-22T13:21:18;91322.31;;;19.42;43.05
7660;BME280;3872;47.902;8.162;2023-04-22T13:23:46;91329.78;;;20.56;40.33
7660;BME280;3872;47.902;8.162;2023-04-22T13:26:13;91324.69;;;19.47;42.74
7660;BME280;3872;47.902;8.162;2023-04-22T13:28:39;91339.00;;;20.25;40.98